Matrei, Austria
Current Conditions -  °F | °C
As of 12:20 PM on Monday 26 Jan 2015 (Local Time) from LOWI Reporting Station
Few Clouds Few Clouds  
Wind Chill: 32°   Ceiling: Unl
Heat Index: 32°   Visibility: 6mi
Dew Point: 23°   Wind: 1mph
Humidity: 69%   Direction: NA
Pressure: 30.3"   Gusts: NA
Location:  47°N, 12.54°E
Report Text: LOWI 261020Z VRB01KT 9999 FEW020 00/M05 Q1026 R08/1///95 NOSIG
Loading
Personal Weather Stations






























Interactive Weather Map New forecast layout! Learn more

10-Day Weather Forecast

Advertisements
Track Severe Weather on mobile